sensor_id;sensor_type;location;lat;lon;timestamp;pressure;altitude;pressure_sealevel;temperature;humidity
47913;BME280;33676;51.006;17.180;2023-04-02T00:01:35;99290.95;;;8.18;100.00
47913;BME280;33676;51.006;17.180;2023-04-02T00:04:11;99298.09;;;8.11;100.00
47913;BME280;33676;51.006;17.180;2023-04-02T00:06:42;99298.86;;;8.07;100.00
47913;BME280;33676;51.006;17.180;2023-04-02T00:11:48;99310.05;;;7.97;100.00
47913;BME280;33676;51.006;17.180;2023-04-02T00:14:30;99308.88;;;7.93;100.00
47913;BME280;33676;51.006;17.180;2023-04-02T00:17:04;99316.48;;;7.87;100.00
47913;BME280;33676;51.006;17.180;2023-04-02T00:19:56;99317.86;;;7.83;100.00
47913;BME280;33676;51.006;17.180;2023-04-02T00:22:30;99319.05;;;7.79;100.00
47913;BME280;33676;51.006;17.180;2023-04-02T00:25:10;99324.52;;;7.76;100.00
47913;BME280;33676;51.006;17.180;2023-04-02T00:27:41;99327.48;;;7.72;100.00
47913;BME280;33676;51.006;17.180;2023-04-02T00:30:14;99330.60;;;7.66;100.00
47913;BME280;33676;51.006;17.180;2023-04-02T00:32:42;99331.99;;;7.59;100.00
47913;BME280;33676;51.006;17.180;2023-04-02T00:35:19;99340.01;;;7.53;100.00
47913;BME280;33676;51.006;17.180;2023-04-02T00:37:50;99348.27;;;7.47;100.00
47913;BME280;33676;51.006;17.180;2023-04-02T00:40:22;99350.55;;;7.45;100.00
47913;BME280;33676;51.006;17.180;2023-04-02T00:42:55;99349.54;;;7.40;100.00
47913;BME280;33676;51.006;17.180;2023-04-02T00:45:29;99351.63;;;7.36;100.00
47913;BME280;33676;51.006;17.180;2023-04-02T00:48:14;99355.45;;;7.31;100.00
47913;BME280;33676;51.006;17.180;2023-04-02T00:50:44;99359.77;;;7.27;100.00
47913;BME280;33676;51.006;17.180;2023-04-02T00:53:23;99358.05;;;7.23;100.00
47913;BME280;33676;51.006;17.180;2023-04-02T00:55:54;99362.33;;;7.17;100.00
47913;BME280;33676;51.006;17.180;2023-04-02T00:58:33;99361.17;;;7.12;100.00
47913;BME280;33676;51.006;17.180;2023-04-02T01:01:03;99368.85;;;7.07;100.00
47913;BME280;33676;51.006;17.180;2023-04-02T01:03:35;99371.36;;;7.04;100.00
47913;BME280;33676;51.006;17.180;2023-04-02T01:06:14;99369.48;;;7.01;100.00
47913;BME280;33676;51.006;17.180;2023-04-02T01:11:42;99368.66;;;6.91;100.00
47913;BME280;33676;51.006;17.180;2023-04-02T01:23:15;99385.03;;;6.67;100.00
47913;BME280;33676;51.006;17.180;2023-04-02T01:26:17;99387.38;;;6.60;100.00
47913;BME280;33676;51.006;17.180;2023-04-02T01:28:59;99395.02;;;6.56;100.00
47913;BME280;33676;51.006;17.180;2023-04-02T01:31:29;99396.77;;;6.54;100.00
47913;BME280;33676;51.006;17.180;2023-04-02T01:34:06;99399.04;;;6.51;100.00
47913;BME280;33676;51.006;17.180;2023-04-02T01:40:18;99412.48;;;6.41;100.00
47913;BME280;33676;51.006;17.180;2023-04-02T01:43:21;99414.95;;;6.36;100.00
47913;BME280;33676;51.006;17.180;2023-04-02T01:45:56;99420.70;;;6.31;100.00
47913;BME280;33676;51.006;17.180;2023-04-02T01:48:29;99428.02;;;6.25;100.00
47913;BME280;33676;51.006;17.180;2023-04-02T01:50:59;99430.05;;;6.22;100.00
47913;BME280;33676;51.006;17.180;2023-04-02T01:53:29;99433.30;;;6.20;100.00
47913;BME280;33676;51.006;17.180;2023-04-02T01:56:00;99433.91;;;6.19;100.00
47913;BME280;33676;51.006;17.180;2023-04-02T01:58:31;99436.48;;;6.17;100.00
47913;BME280;33676;51.006;17.180;2023-04-02T02:01:07;99441.53;;;6.15;100.00
47913;BME280;33676;51.006;17.180;2023-04-02T02:03:42;99444.67;;;6.12;100.00
47913;BME280;33676;51.006;17.180;2023-04-02T02:06:13;99446.02;;;6.08;100.00
47913;BME280;33676;51.006;17.180;2023-04-02T02:08:51;99447.90;;;6.01;100.00
47913;BME280;33676;51.006;17.180;2023-04-02T02:11:25;99454.17;;;5.95;100.00
47913;BME280;33676;51.006;17.180;2023-04-02T02:14:21;99459.45;;;5.92;100.00
47913;BME280;33676;51.006;17.180;2023-04-02T02:16:50;99457.73;;;5.89;100.00
47913;BME280;33676;51.006;17.180;2023-04-02T02:19:37;99466.98;;;5.86;100.00
47913;BME280;33676;51.006;17.180;2023-04-02T02:22:29;99467.65;;;5.84;100.00
47913;BME280;33676;51.006;17.180;2023-04-02T02:25:03;99466.66;;;5.78;100.00
47913;BME280;33676;51.006;17.180;2023-04-02T02:33:24;99482.92;;;5.64;100.00
47913;BME280;33676;51.006;17.180;2023-04-02T02:36:01;99488.55;;;5.61;100.00
47913;BME280;33676;51.006;17.180;2023-04-02T02:38:51;99489.48;;;5.58;100.00
47913;BME280;33676;51.006;17.180;2023-04-02T02:41:54;99496.83;;;5.57;100.00
47913;BME280;33676;51.006;17.180;2023-04-02T02:44:28;99498.73;;;5.57;100.00
47913;BME280;33676;51.006;17.180;2023-04-02T02:47:04;99507.45;;;5.56;100.00
47913;BME280;33676;51.006;17.180;2023-04-02T02:49:39;99510.37;;;5.54;100.00
47913;BME280;33676;51.006;17.180;2023-04-02T02:54:43;99514.01;;;5.51;100.00
47913;BME280;33676;51.006;17.180;2023-04-02T02:57:17;99521.85;;;5.51;100.00
47913;BME280;33676;51.006;17.180;2023-04-02T02:59:47;99524.22;;;5.49;100.00
47913;BME280;33676;51.006;17.180;2023-04-02T03:02:17;99534.83;;;5.49;100.00
47913;BME280;33676;51.006;17.180;2023-04-02T03:04:49;99536.85;;;5.47;100.00
47913;BME280;33676;51.006;17.180;2023-04-02T03:07:22;99535.38;;;5.46;100.00
47913;BME280;33676;51.006;17.180;2023-04-02T03:10:16;99538.06;;;5.42;100.00
47913;BME280;33676;51.006;17.180;2023-04-02T03:13:31;99544.77;;;5.38;100.00
47913;BME280;33676;51.006;17.180;2023-04-02T03:18:51;99551.52;;;5.30;100.00
47913;BME280;33676;51.006;17.180;2023-04-02T03:21:33;99556.73;;;5.27;100.00
47913;BME280;33676;51.006;17.180;2023-04-02T03:24:31;99569.23;;;5.27;100.00
47913;BME280;33676;51.006;17.180;2023-04-02T03:27:14;99572.01;;;5.22;100.00
47913;BME280;33676;51.006;17.180;2023-04-02T03:30:01;99576.15;;;5.17;100.00
47913;BME280;33676;51.006;17.180;2023-04-02T03:32:37;99587.02;;;5.13;100.00
47913;BME280;33676;51.006;17.180;2023-04-02T03:35:26;99589.64;;;5.07;100.00
47913;BME280;33676;51.006;17.180;2023-04-02T03:38:32;99595.16;;;5.00;100.00
47913;BME280;33676;51.006;17.180;2023-04-02T03:41:18;99596.48;;;4.92;100.00
47913;BME280;33676;51.006;17.180;2023-04-02T03:43:57;99601.73;;;4.86;100.00
47913;BME280;33676;51.006;17.180;2023-04-02T03:46:43;99605.44;;;4.83;100.00
47913;BME280;33676;51.006;17.180;2023-04-02T03:49:24;99615.35;;;4.79;100.00
47913;BME280;33676;51.006;17.180;2023-04-02T03:52:12;99620.08;;;4.76;100.00
47913;BME280;33676;51.006;17.180;2023-04-02T03:54:40;99627.56;;;4.73;100.00
47913;BME280;33676;51.006;17.180;2023-04-02T04:00:07;99637.79;;;4.65;100.00
47913;BME280;33676;51.006;17.180;2023-04-02T04:02:51;99642.28;;;4.59;100.00
47913;BME280;33676;51.006;17.180;2023-04-02T04:05:30;99652.90;;;4.55;100.00
47913;BME280;33676;51.006;17.180;2023-04-02T04:08:29;99653.64;;;4.55;100.00
47913;BME280;33676;51.006;17.180;2023-04-02T04:11:08;99663.17;;;4.55;100.00
47913;BME280;33676;51.006;17.180;2023-04-02T04:13:47;99669.95;;;4.54;100.00
47913;BME280;33676;51.006;17.180;2023-04-02T04:16:25;99675.09;;;4.50;100.00
47913;BME280;33676;51.006;17.180;2023-04-02T04:19:02;99682.40;;;4.43;100.00
47913;BME280;33676;51.006;17.180;2023-04-02T04:21:34;99688.90;;;4.39;100.00
47913;BME280;33676;51.006;17.180;2023-04-02T04:24:15;99692.08;;;4.38;100.00
47913;BME280;33676;51.006;17.180;2023-04-02T04:27:47;99696.95;;;4.35;100.00
47913;BME280;33676;51.006;17.180;2023-04-02T04:30:06;99702.94;;;4.27;100.00
47913;BME280;33676;51.006;17.180;2023-04-02T04:32:54;99709.15;;;4.22;100.00
47913;BME280;33676;51.006;17.180;2023-04-02T04:35:35;99718.14;;;4.19;100.00
47913;BME280;33676;51.006;17.180;2023-04-02T04:38:10;99721.70;;;4.18;100.00
47913;BME280;33676;51.006;17.180;2023-04-02T04:40:48;99723.88;;;4.14;100.00
47913;BME280;33676;51.006;17.180;2023-04-02T04:46:58;99734.61;;;3.99;100.00
47913;BME280;33676;51.006;17.180;2023-04-02T04:49:35;99740.28;;;3.93;100.00
47913;BME280;33676;51.006;17.180;2023-04-02T04:52:21;99746.48;;;3.94;100.00
47913;BME280;33676;51.006;17.180;2023-04-02T04:55:33;99750.48;;;3.93;100.00
47913;BME280;33676;51.006;17.180;2023-04-02T04:58:41;99755.89;;;3.98;100.00
47913;BME280;33676;51.006;17.180;2023-04-02T05:04:41;99767.81;;;4.05;100.00
47913;BME280;33676;51.006;17.180;2023-04-02T05:07:16;99773.84;;;4.05;100.00
47913;BME280;33676;51.006;17.180;2023-04-02T05:10:02;99776.04;;;4.06;100.00
47913;BME280;33676;51.006;17.180;2023-04-02T05:16:30;99786.17;;;4.10;100.00
47913;BME280;33676;51.006;17.180;2023-04-02T05:19:31;99792.29;;;4.09;100.00
47913;BME280;33676;51.006;17.180;2023-04-02T05:22:58;99795.52;;;4.07;100.00
47913;BME280;33676;51.006;17.180;2023-04-02T05:25:32;99799.82;;;4.08;100.00
47913;BME280;33676;51.006;17.180;2023-04-02T05:28:30;99803.48;;;4.07;100.00
47913;BME280;33676;51.006;17.180;2023-04-02T05:31:34;99806.58;;;4.04;100.00
47913;BME280;33676;51.006;17.180;2023-04-02T05:34:01;99808.11;;;4.05;100.00
47913;BME280;33676;51.006;17.180;2023-04-02T05:36:32;99809.49;;;4.05;100.00
47913;BME280;33676;51.006;17.180;2023-04-02T05:39:07;99807.71;;;4.06;100.00
47913;BME280;33676;51.006;17.180;2023-04-02T05:41:42;99814.48;;;4.08;100.00
47913;BME280;33676;51.006;17.180;2023-04-02T05:44:25;99818.02;;;4.10;100.00
47913;BME280;33676;51.006;17.180;2023-04-02T05:47:05;99820.56;;;4.11;100.00
47913;BME280;33676;51.006;17.180;2023-04-02T05:49:47;99826.40;;;4.11;100.00
47913;BME280;33676;51.006;17.180;2023-04-02T05:52:29;99827.42;;;4.15;100.00
47913;BME280;33676;51.006;17.180;2023-04-02T05:57:34;99833.59;;;4.18;100.00
47913;BME280;33676;51.006;17.180;2023-04-02T06:04:14;99845.89;;;4.26;100.00
47913;BME280;33676;51.006;17.180;2023-04-02T06:07:31;99849.59;;;4.31;100.00
47913;BME280;33676;51.006;17.180;2023-04-02T06:10:22;99854.23;;;4.35;100.00
47913;BME280;33676;51.006;17.180;2023-04-02T06:13:05;99857.95;;;4.36;100.00
47913;BME280;33676;51.006;17.180;2023-04-02T06:15:36;99862.96;;;4.36;100.00
47913;BME280;33676;51.006;17.180;2023-04-02T06:18:18;99867.61;;;4.37;100.00
47913;BME280;33676;51.006;17.180;2023-04-02T06:20:48;99871.42;;;4.37;100.00
47913;BME280;33676;51.006;17.180;2023-04-02T06:23:49;99876.84;;;4.36;100.00
47913;BME280;33676;51.006;17.180;2023-04-02T06:26:35;99880.50;;;4.36;100.00
47913;BME280;33676;51.006;17.180;2023-04-02T06:29:38;99888.40;;;4.36;100.00
47913;BME280;33676;51.006;17.180;2023-04-02T06:32:11;99891.59;;;4.38;100.00
47913;BME280;33676;51.006;17.180;2023-04-02T06:34:41;99900.89;;;4.39;100.00
47913;BME280;33676;51.006;17.180;2023-04-02T06:37:39;99902.92;;;4.40;100.00
47913;BME280;33676;51.006;17.180;2023-04-02T06:40:38;99909.56;;;4.41;100.00
47913;BME280;33676;51.006;17.180;2023-04-02T06:43:32;99913.70;;;4.45;100.00
47913;BME280;33676;51.006;17.180;2023-04-02T06:46:46;99920.13;;;4.44;100.00
47913;BME280;33676;51.006;17.180;2023-04-02T06:49:22;99924.98;;;4.41;100.00
47913;BME280;33676;51.006;17.180;2023-04-02T06:51:55;99930.01;;;4.38;100.00
47913;BME280;33676;51.006;17.180;2023-04-02T06:54:27;99937.45;;;4.38;100.00
47913;BME280;33676;51.006;17.180;2023-04-02T06:57:18;99945.27;;;4.37;100.00
47913;BME280;33676;51.006;17.180;2023-04-02T06:59:54;99948.30;;;4.36;100.00
47913;BME280;33676;51.006;17.180;2023-04-02T07:03:30;99955.24;;;4.35;100.00
47913;BME280;33676;51.006;17.180;2023-04-02T07:06:01;99960.23;;;4.36;100.00
47913;BME280;33676;51.006;17.180;2023-04-02T07:08:32;99963.05;;;4.38;100.00
47913;BME280;33676;51.006;17.180;2023-04-02T07:11:01;99965.65;;;4.41;100.00
47913;BME280;33676;51.006;17.180;2023-04-02T07:13:29;99968.14;;;4.43;100.00
47913;BME280;33676;51.006;17.180;2023-04-02T07:15:57;99973.23;;;4.41;100.00
47913;BME280;33676;51.006;17.180;2023-04-02T07:18:30;99975.79;;;4.39;100.00
47913;BME280;33676;51.006;17.180;2023-04-02T07:20:59;99985.31;;;4.39;100.00
47913;BME280;33676;51.006;17.180;2023-04-02T07:23:28;99988.42;;;4.39;100.00
47913;BME280;33676;51.006;17.180;2023-04-02T07:25:56;99994.36;;;4.38;100.00
47913;BME280;33676;51.006;17.180;2023-04-02T07:28:25;99999.23;;;4.38;100.00
47913;BME280;33676;51.006;17.180;2023-04-02T07:30:54;100001.55;;;4.40;100.00
47913;BME280;33676;51.006;17.180;2023-04-02T07:33:26;100004.11;;;4.43;100.00
47913;BME280;33676;51.006;17.180;2023-04-02T07:35:56;100003.54;;;4.47;100.00
47913;BME280;33676;51.006;17.180;2023-04-02T07:38:27;100005.37;;;4.51;100.00
47913;BME280;33676;51.006;17.180;2023-04-02T07:40:57;100006.22;;;4.55;100.00
47913;BME280;33676;51.006;17.180;2023-04-02T07:43:26;100001.47;;;4.56;100.00
47913;BME280;33676;51.006;17.180;2023-04-02T07:45:56;100005.58;;;4.57;100.00
47913;BME280;33676;51.006;17.180;2023-04-02T07:48:25;100008.46;;;4.57;100.00
47913;BME280;33676;51.006;17.180;2023-04-02T07:50:56;100016.79;;;4.60;100.00
47913;BME280;33676;51.006;17.180;2023-04-02T07:53:35;100020.62;;;4.63;100.00
47913;BME280;33676;51.006;17.180;2023-04-02T07:56:13;100019.87;;;4.64;100.00
47913;BME280;33676;51.006;17.180;2023-04-02T07:58:43;100028.77;;;4.63;100.00
47913;BME280;33676;51.006;17.180;2023-04-02T08:01:18;100033.05;;;4.64;100.00
47913;BME280;33676;51.006;17.180;2023-04-02T08:03:48;100039.49;;;4.66;100.00
47913;BME280;33676;51.006;17.180;2023-04-02T08:06:24;100046.03;;;4.70;100.00
47913;BME280;33676;51.006;17.180;2023-04-02T08:09:18;100052.05;;;4.76;100.00
47913;BME280;33676;51.006;17.180;2023-04-02T08:11:49;100050.77;;;4.80;100.00
47913;BME280;33676;51.006;17.180;2023-04-02T08:14:23;100060.17;;;4.83;100.00
47913;BME280;33676;51.006;17.180;2023-04-02T08:16:54;100063.15;;;4.82;100.00
47913;BME280;33676;51.006;17.180;2023-04-02T08:19:24;100070.64;;;4.84;100.00
47913;BME280;33676;51.006;17.180;2023-04-02T08:21:56;100069.74;;;4.85;100.00
47913;BME280;33676;51.006;17.180;2023-04-02T08:24:27;100077.00;;;4.85;100.00
47913;BME280;33676;51.006;17.180;2023-04-02T08:26:58;100085.95;;;4.86;100.00
47913;BME280;33676;51.006;17.180;2023-04-02T08:29:28;100082.97;;;4.87;100.00
47913;BME280;33676;51.006;17.180;2023-04-02T08:32:00;100084.82;;;4.87;100.00
47913;BME280;33676;51.006;17.180;2023-04-02T08:34:30;100093.92;;;4.86;100.00
47913;BME280;33676;51.006;17.180;2023-04-02T08:37:01;100096.59;;;4.88;100.00
47913;BME280;33676;51.006;17.180;2023-04-02T08:39:31;100100.77;;;4.90;100.00
47913;BME280;33676;51.006;17.180;2023-04-02T08:42:30;100101.38;;;4.98;100.00
47913;BME280;33676;51.006;17.180;2023-04-02T08:45:16;100102.19;;;5.08;100.00
47913;BME280;33676;51.006;17.180;2023-04-02T08:47:55;100102.52;;;5.19;100.00
47913;BME280;33676;51.006;17.180;2023-04-02T08:50:40;100106.58;;;5.30;100.00
47913;BME280;33676;51.006;17.180;2023-04-02T08:53:28;100107.14;;;5.35;100.00
47913;BME280;33676;51.006;17.180;2023-04-02T08:58:57;100116.01;;;5.35;100.00
47913;BME280;33676;51.006;17.180;2023-04-02T09:02:26;100115.61;;;5.36;100.00
47913;BME280;33676;51.006;17.180;2023-04-02T09:04:56;100116.44;;;5.39;100.00
47913;BME280;33676;51.006;17.180;2023-04-02T09:07:27;100115.63;;;5.44;100.00
47913;BME280;33676;51.006;17.180;2023-04-02T09:09:58;100122.40;;;5.53;100.00
47913;BME280;33676;51.006;17.180;2023-04-02T09:12:40;100122.00;;;5.59;100.00
47913;BME280;33676;51.006;17.180;2023-04-02T09:15:34;100120.55;;;5.72;100.00
47913;BME280;33676;51.006;17.180;2023-04-02T09:18:18;100126.39;;;5.83;100.00
47913;BME280;33676;51.006;17.180;2023-04-02T09:20:48;100128.97;;;5.99;100.00
47913;BME280;33676;51.006;17.180;2023-04-02T09:23:24;100128.09;;;6.13;100.00
47913;BME280;33676;51.006;17.180;2023-04-02T09:25:54;100131.35;;;6.24;100.00
47913;BME280;33676;51.006;17.180;2023-04-02T09:28:32;100137.53;;;6.28;100.00
47913;BME280;33676;51.006;17.180;2023-04-02T09:31:34;100137.54;;;6.34;100.00
47913;BME280;33676;51.006;17.180;2023-04-02T09:34:31;100141.54;;;6.37;100.00
47913;BME280;33676;51.006;17.180;2023-04-02T09:37:18;100151.90;;;6.35;99.81
47913;BME280;33676;51.006;17.180;2023-04-02T09:39:48;100156.02;;;6.30;99.53
47913;BME280;33676;51.006;17.180;2023-04-02T09:42:33;100161.11;;;6.21;98.35
47913;BME280;33676;51.006;17.180;2023-04-02T09:47:42;100172.48;;;5.96;97.83
47913;BME280;33676;51.006;17.180;2023-04-02T09:52:57;100180.05;;;5.80;97.78
47913;BME280;33676;51.006;17.180;2023-04-02T09:55:28;100191.07;;;5.73;97.67
47913;BME280;33676;51.006;17.180;2023-04-02T09:58:14;100196.53;;;5.66;97.35
47913;BME280;33676;51.006;17.180;2023-04-02T10:00:51;100200.58;;;5.56;97.28
47913;BME280;33676;51.006;17.180;2023-04-02T10:03:31;100202.97;;;5.50;97.46
47913;BME280;33676;51.006;17.180;2023-04-02T10:08:37;100214.77;;;5.47;98.15
47913;BME280;33676;51.006;17.180;2023-04-02T10:11:41;100216.45;;;5.45;98.12
47913;BME280;33676;51.006;17.180;2023-04-02T10:14:39;100220.23;;;5.46;98.17
47913;BME280;33676;51.006;17.180;2023-04-02T10:17:31;100220.86;;;5.50;98.52
47913;BME280;33676;51.006;17.180;2023-04-02T10:20:25;100222.16;;;5.54;97.98
47913;BME280;33676;51.006;17.180;2023-04-02T10:22:53;100229.21;;;5.55;97.73
47913;BME280;33676;51.006;17.180;2023-04-02T10:25:26;100234.27;;;5.55;97.53
47913;BME280;33676;51.006;17.180;2023-04-02T10:28:12;100235.15;;;5.57;97.78
47913;BME280;33676;51.006;17.180;2023-04-02T10:31:13;100240.40;;;5.60;97.99
47913;BME280;33676;51.006;17.180;2023-04-02T10:33:50;100243.95;;;5.58;97.41
47913;BME280;33676;51.006;17.180;2023-04-02T10:39:44;100243.27;;;5.52;97.30
47913;BME280;33676;51.006;17.180;2023-04-02T10:45:33;100255.15;;;5.50;97.33
47913;BME280;33676;51.006;17.180;2023-04-02T10:48:20;100256.43;;;5.49;97.08
47913;BME280;33676;51.006;17.180;2023-04-02T10:54:32;100260.16;;;5.51;97.28
47913;BME280;33676;51.006;17.180;2023-04-02T11:03:05;100268.54;;;5.53;96.52
47913;BME280;33676;51.006;17.180;2023-04-02T11:05:42;100272.36;;;5.56;96.74
47913;BME280;33676;51.006;17.180;2023-04-02T11:11:05;100282.27;;;5.64;97.05
47913;BME280;33676;51.006;17.180;2023-04-02T11:16:37;100289.46;;;5.72;96.86
47913;BME280;33676;51.006;17.180;2023-04-02T11:21:58;100291.82;;;5.84;97.04
47913;BME280;33676;51.006;17.180;2023-04-02T11:24:52;100299.30;;;5.94;97.20
47913;BME280;33676;51.006;17.180;2023-04-02T11:27:27;100294.29;;;6.05;97.41
47913;BME280;33676;51.006;17.180;2023-04-02T11:32:48;100302.52;;;6.16;96.56
47913;BME280;33676;51.006;17.180;2023-04-02T11:35:36;100307.24;;;6.15;96.04
47913;BME280;33676;51.006;17.180;2023-04-02T11:40:46;100310.83;;;6.05;95.24
47913;BME280;33676;51.006;17.180;2023-04-02T11:48:35;100320.30;;;5.87;94.81
47913;BME280;33676;51.006;17.180;2023-04-02T11:53:53;100334.43;;;5.83;94.54
47913;BME280;33676;51.006;17.180;2023-04-02T11:56:33;100340.56;;;5.79;94.45
47913;BME280;33676;51.006;17.180;2023-04-02T11:59:39;100341.11;;;5.75;94.45
47913;BME280;33676;51.006;17.180;2023-04-02T12:02:55;100349.92;;;5.76;94.70
47913;BME280;33676;51.006;17.180;2023-04-02T12:05:39;100348.89;;;5.79;95.08
47913;BME280;33676;51.006;17.180;2023-04-02T12:08:27;100354.11;;;5.87;95.42
47913;BME280;33676;51.006;17.180;2023-04-02T12:11:01;100355.40;;;5.95;95.56
47913;BME280;33676;51.006;17.180;2023-04-02T12:13:47;100358.76;;;6.01;95.66
47913;BME280;33676;51.006;17.180;2023-04-02T12:16:16;100354.65;;;6.09;95.73
47913;BME280;33676;51.006;17.180;2023-04-02T12:18:50;100355.21;;;6.14;95.47
47913;BME280;33676;51.006;17.180;2023-04-02T12:21:27;100359.14;;;6.18;95.48
47913;BME280;33676;51.006;17.180;2023-04-02T12:23:59;100361.15;;;6.22;95.41
47913;BME280;33676;51.006;17.180;2023-04-02T12:26:35;100364.92;;;6.23;94.81
47913;BME280;33676;51.006;17.180;2023-04-02T12:29:27;100368.27;;;6.22;94.81
47913;BME280;33676;51.006;17.180;2023-04-02T12:31:57;100373.70;;;6.18;94.23
47913;BME280;33676;51.006;17.180;2023-04-02T12:34:28;100371.84;;;6.12;94.01
47913;BME280;33676;51.006;17.180;2023-04-02T12:37:01;100375.08;;;6.07;94.24
47913;BME280;33676;51.006;17.180;2023-04-02T12:39:34;100380.34;;;6.03;94.23
47913;BME280;33676;51.006;17.180;2023-04-02T12:42:04;100383.33;;;5.99;94.05
47913;BME280;33676;51.006;17.180;2023-04-02T12:44:32;100383.71;;;5.92;94.00
47913;BME280;33676;51.006;17.180;2023-04-02T12:47:01;100385.71;;;5.87;93.77
47913;BME280;33676;51.006;17.180;2023-04-02T12:49:38;100392.67;;;5.80;93.59
47913;BME280;33676;51.006;17.180;2023-04-02T12:52:12;100395.58;;;5.75;93.74
47913;BME280;33676;51.006;17.180;2023-04-02T12:54:54;100395.50;;;5.73;94.18
47913;BME280;33676;51.006;17.180;2023-04-02T13:03:19;100400.17;;;5.68;94.20
47913;BME280;33676;51.006;17.180;2023-04-02T13:05:55;100407.10;;;5.68;94.27
47913;BME280;33676;51.006;17.180;2023-04-02T13:08:28;100408.27;;;5.69;93.98
47913;BME280;33676;51.006;17.180;2023-04-02T13:11:00;100406.73;;;5.71;94.05
47913;BME280;33676;51.006;17.180;2023-04-02T13:13:38;100409.03;;;5.76;94.47
47913;BME280;33676;51.006;17.180;2023-04-02T13:18:45;100417.75;;;5.91;94.57
47913;BME280;33676;51.006;17.180;2023-04-02T13:21:25;100421.00;;;5.99;94.28
47913;BME280;33676;51.006;17.180;2023-04-02T13:23:56;100418.10;;;6.04;94.57
47913;BME280;33676;51.006;17.180;2023-04-02T13:26:27;100419.44;;;6.08;94.63
47913;BME280;33676;51.006;17.180;2023-04-02T13:29:15;100418.66;;;6.09;94.38
47913;BME280;33676;51.006;17.180;2023-04-02T13:31:45;100421.56;;;6.07;94.31
47913;BME280;33676;51.006;17.180;2023-04-02T13:34:13;100423.77;;;6.05;93.96
47913;BME280;33676;51.006;17.180;2023-04-02T13:36:42;100421.63;;;6.03;93.87
47913;BME280;33676;51.006;17.180;2023-04-02T13:39:10;100427.90;;;5.99;93.45
47913;BME280;33676;51.006;17.180;2023-04-02T13:41:49;100431.73;;;5.96;93.42
47913;BME280;33676;51.006;17.180;2023-04-02T13:44:21;100433.63;;;5.93;93.34
47913;BME280;33676;51.006;17.180;2023-04-02T13:46:52;100437.71;;;5.91;93.48
47913;BME280;33676;51.006;17.180;2023-04-02T13:49:22;100440.17;;;5.91;93.72
47913;BME280;33676;51.006;17.180;2023-04-02T13:51:54;100444.77;;;5.92;94.02
47913;BME280;33676;51.006;17.180;2023-04-02T13:54:50;100450.67;;;5.95;93.80
47913;BME280;33676;51.006;17.180;2023-04-02T13:57:20;100454.40;;;5.97;93.99
47913;BME280;33676;51.006;17.180;2023-04-02T13:59:48;100452.65;;;5.97;94.01
47913;BME280;33676;51.006;17.180;2023-04-02T14:02:21;100454.03;;;5.97;94.05
47913;BME280;33676;51.006;17.180;2023-04-02T14:11:32;100461.34;;;6.00;94.26
47913;BME280;33676;51.006;17.180;2023-04-02T14:17:40;100460.17;;;6.03;94.05
47913;BME280;33676;51.006;17.180;2023-04-02T14:26:10;100472.52;;;6.05;94.09
47913;BME280;33676;51.006;17.180;2023-04-02T14:29:07;100476.19;;;6.05;93.98
47913;BME280;33676;51.006;17.180;2023-04-02T14:31:54;100478.54;;;6.06;94.15
47913;BME280;33676;51.006;17.180;2023-04-02T14:35:03;100481.87;;;6.09;94.15
47913;BME280;33676;51.006;17.180;2023-04-02T14:38:16;100485.50;;;6.09;94.08
47913;BME280;33676;51.006;17.180;2023-04-02T14:40:52;100490.87;;;6.09;94.15
47913;BME280;33676;51.006;17.180;2023-04-02T14:43:27;100492.77;;;6.09;93.85
47913;BME280;33676;51.006;17.180;2023-04-02T14:46:05;100495.73;;;6.09;93.90
47913;BME280;33676;51.006;17.180;2023-04-02T14:49:02;100497.98;;;6.09;94.06
47913;BME280;33676;51.006;17.180;2023-04-02T14:51:43;100498.71;;;6.09;94.12
47913;BME280;33676;51.006;17.180;2023-04-02T14:54:36;100500.58;;;6.06;93.98
47913;BME280;33676;51.006;17.180;2023-04-02T14:57:12;100503.34;;;6.03;93.86
47913;BME280;33676;51.006;17.180;2023-04-02T15:02:46;100509.83;;;5.98;94.19
47913;BME280;33676;51.006;17.180;2023-04-02T15:08:27;100514.80;;;5.96;94.25
47913;BME280;33676;51.006;17.180;2023-04-02T15:11:25;100516.24;;;5.92;94.15
47913;BME280;33676;51.006;17.180;2023-04-02T15:16:43;100518.80;;;5.90;94.32
47913;BME280;33676;51.006;17.180;2023-04-02T15:19:16;100517.31;;;5.88;94.31
47913;BME280;33676;51.006;17.180;2023-04-02T15:22:06;100518.63;;;5.86;94.36
47913;BME280;33676;51.006;17.180;2023-04-02T15:25:01;100522.39;;;5.84;94.35
47913;BME280;33676;51.006;17.180;2023-04-02T15:27:58;100524.27;;;5.84;94.63
47913;BME280;33676;51.006;17.180;2023-04-02T15:30:58;100528.12;;;5.84;94.60
47913;BME280;33676;51.006;17.180;2023-04-02T15:39:20;100538.84;;;5.82;94.15
47913;BME280;33676;51.006;17.180;2023-04-02T15:48:10;100549.29;;;5.81;94.25
47913;BME280;33676;51.006;17.180;2023-04-02T15:56:20;100551.89;;;5.78;94.08
47913;BME280;33676;51.006;17.180;2023-04-02T16:10:27;100569.16;;;5.70;93.89
47913;BME280;33676;51.006;17.180;2023-04-02T16:13:34;100574.40;;;5.69;93.92
47913;BME280;33676;51.006;17.180;2023-04-02T16:16:10;100576.02;;;5.68;93.93
47913;BME280;33676;51.006;17.180;2023-04-02T16:18:43;100581.19;;;5.69;93.99
47913;BME280;33676;51.006;17.180;2023-04-02T16:21:21;100588.89;;;5.67;93.97
47913;BME280;33676;51.006;17.180;2023-04-02T16:23:50;100587.65;;;5.68;93.97
47913;BME280;33676;51.006;17.180;2023-04-02T16:32:53;100594.33;;;5.66;93.84
47913;BME280;33676;51.006;17.180;2023-04-02T16:44:57;100612.48;;;5.67;93.66
47913;BME280;33676;51.006;17.180;2023-04-02T16:51:02;100629.19;;;5.62;93.63
47913;BME280;33676;51.006;17.180;2023-04-02T16:54:15;100629.02;;;5.59;93.60